Time;durP1;ratioP1;P1;durP2;ratioP2;P2;SDS_P1;SDS_P2;PMS_P1;PMS_P2;Temp;Humidity;BMP_temperature;BMP_pressure;BME280_temperature;BME280_humidity;BME280_pressure;Samples;Min_cycle;Max_cycle;Signal;HPM_P1;HPM_P2
2023/06/03 00:00:13;;;;;;;11.25;2.45;;;;;;;12.52;100.00;98757.69;5031913;28;20146;-73
2023/06/03 00:02:38;;;;;;;13.75;2.40;;;;;;;12.58;100.00;98767.69;5033372;28;20032;-73
2023/06/03 00:05:04;;;;;;;10.02;2.30;;;;;;;12.46;100.00;98753.94;5019143;28;20029;-74
2023/06/03 00:07:30;;;;;;;11.85;3.25;;;;;;;12.41;100.00;98754.59;5049544;28;20032;-73
2023/06/03 00:09:55;;;;;;;6.20;2.40;;;;;;;12.34;100.00;98750.25;5031375;28;20020;-73
2023/06/03 00:12:21;;;;;;;8.40;2.55;;;;;;;12.44;100.00;98764.19;5029575;28;20025;-73
2023/06/03 00:14:46;;;;;;;9.75;3.03;;;;;;;12.39;100.00;98756.72;5048246;28;20025;-73
2023/06/03 00:17:12;;;;;;;10.15;2.50;;;;;;;12.37;100.00;98747.94;5032897;28;20052;-74
2023/06/03 00:19:40;;;;;;;8.02;2.20;;;;;;;12.47;100.00;98771.88;5050304;28;20029;-74
2023/06/03 00:22:06;;;;;;;14.75;2.75;;;;;;;12.44;100.00;98764.19;5033156;28;20025;-74
2023/06/03 00:24:31;;;;;;;8.30;2.38;;;;;;;12.38;100.00;98757.75;5051602;28;20031;-74
2023/06/03 00:26:58;;;;;;;11.07;2.40;;;;;;;12.39;100.00;98759.44;5053832;28;20111;-74
2023/06/03 00:29:24;;;;;;;9.98;2.50;;;;;;;12.38;100.00;98756.91;5047217;28;20029;-74
2023/06/03 00:31:50;;;;;;;7.90;2.10;;;;;;;12.48;100.00;98766.25;5065666;22;20029;-75
2023/06/03 00:34:15;;;;;;;6.95;2.45;;;;;;;12.39;100.00;98769.41;5080612;28;20062;-77
2023/06/03 00:36:41;;;;;;;13.15;2.85;;;;;;;12.28;100.00;98776.34;5075385;28;20028;-76
2023/06/03 00:39:07;;;;;;;6.78;2.72;;;;;;;12.29;100.00;98769.91;5089038;28;20078;-75
2023/06/03 00:41:32;;;;;;;7.90;2.70;;;;;;;12.15;100.00;98760.13;5091525;28;20151;-76
2023/06/03 00:43:57;;;;;;;9.90;2.40;;;;;;;12.06;100.00;98768.53;5080542;28;20394;-75
2023/06/03 00:46:23;;;;;;;8.27;2.53;;;;;;;12.05;100.00;98757.88;5088972;28;20085;-75
2023/06/03 00:48:50;;;;;;;16.27;3.80;;;;;;;12.04;100.00;98764.34;5070577;28;20452;-76
2023/06/03 00:51:17;;;;;;;10.10;2.50;;;;;;;11.85;100.00;98753.31;5113199;28;20022;-76
2023/06/03 00:53:43;;;;;;;8.95;2.58;;;;;;;12.01;100.00;98757.47;5088004;28;20020;-75
2023/06/03 00:56:08;;;;;;;10.90;3.10;;;;;;;11.84;100.00;98754.38;5074788;28;20026;-76
2023/06/03 00:58:34;;;;;;;11.30;3.10;;;;;;;11.93;100.00;98757.72;5096696;28;20026;-75
2023/06/03 01:00:59;;;;;;;7.95;2.78;;;;;;;11.87;100.00;98760.44;5093978;28;20020;-75
2023/06/03 01:03:25;;;;;;;10.27;2.65;;;;;;;11.71;100.00;98748.13;5084960;28;20486;-76
2023/06/03 01:06:05;;;;;;;10.85;2.75;;;;;;;11.75;100.00;98760.25;5079630;28;20446;-75
2023/06/03 01:08:43;;;;;;;6.45;2.70;;;;;;;11.52;100.00;98753.38;5096329;28;20024;-76
2023/06/03 01:11:20;;;;;;;8.20;2.83;;;;;;;11.65;100.00;98751.72;5094862;28;20028;-75
2023/06/03 01:13:55;;;;;;;14.57;2.92;;;;;;;11.49;100.00;98766.53;5083133;28;20020;-77
2023/06/03 01:16:22;;;;;;;5.72;2.55;;;;;;;11.52;100.00;98742.56;5089559;28;20059;-76
2023/06/03 01:18:48;;;;;;;12.80;3.53;;;;;;;11.37;100.00;98759.06;5072308;28;20512;-75
2023/06/03 01:21:16;;;;;;;6.45;2.42;;;;;;;11.33;100.00;98765.09;5083496;28;20059;-77
2023/06/03 01:23:43;;;;;;;5.95;2.47;;;;;;;11.14;100.00;98755.94;5078548;28;20020;-76
2023/06/03 01:26:11;;;;;;;13.18;3.05;;;;;;;11.25;100.00;98744.47;5080466;28;20048;-75
2023/06/03 01:28:37;;;;;;;16.13;3.22;;;;;;;11.13;100.00;98754.25;5084235;28;20029;-76
2023/06/03 01:31:04;;;;;;;10.98;3.08;;;;;;;11.14;100.00;98758.63;5103254;28;20069;-77
2023/06/03 01:33:31;;;;;;;11.98;2.88;;;;;;;11.01;100.00;98759.47;5108690;28;20096;-76
2023/06/03 01:36:01;;;;;;;8.93;2.72;;;;;;;10.97;100.00;98755.50;5109167;28;20016;-76
2023/06/03 01:38:27;;;;;;;8.50;2.60;;;;;;;10.99;100.00;98752.59;5107490;28;20085;-77
2023/06/03 01:40:53;;;;;;;11.18;2.83;;;;;;;10.73;100.00;98738.81;5100953;28;20020;-77
2023/06/03 01:43:19;;;;;;;15.27;3.47;;;;;;;10.87;100.00;98763.19;5100282;28;20082;-77
2023/06/03 01:45:45;;;;;;;18.40;3.50;;;;;;;10.87;100.00;98757.75;5095424;28;20119;-76
2023/06/03 01:48:11;;;;;;;6.50;2.75;;;;;;;10.84;100.00;98761.72;5098577;28;20024;-75
2023/06/03 01:50:41;;;;;;;12.18;2.90;;;;;;;10.80;100.00;98763.19;5087868;28;20032;-76
2023/06/03 01:53:06;;;;;;;6.15;2.65;;;;;;;10.85;100.00;98747.16;5078922;28;20535;-76
2023/06/03 01:55:32;;;;;;;12.73;3.20;;;;;;;10.88;100.00;98762.16;5094861;28;20036;-76
2023/06/03 01:57:57;;;;;;;7.75;2.35;;;;;;;10.81;100.00;98747.78;5084624;28;20032;-76
2023/06/03 02:00:22;;;;;;;9.90;2.58;;;;;;;10.85;100.00;98760.69;5078866;28;22314;-76
2023/06/03 02:02:47;;;;;;;12.07;3.15;;;;;;;10.70;100.00;98750.06;5083048;28;20127;-75
2023/06/03 02:05:13;;;;;;;11.55;3.25;;;;;;;10.82;100.00;98758.41;5079793;28;20031;-77
2023/06/03 02:07:38;;;;;;;5.65;2.80;;;;;;;10.63;100.00;98746.50;5122891;28;20036;-77
2023/06/03 02:10:04;;;;;;;7.97;2.92;;;;;;;10.55;100.00;98751.28;5079904;28;20077;-76
2023/06/03 02:12:29;;;;;;;8.10;2.70;;;;;;;10.54;100.00;98745.03;5093038;28;20031;-76
2023/06/03 02:14:56;;;;;;;10.05;3.05;;;;;;;10.43;100.00;98745.63;5085738;28;20020;-76
2023/06/03 02:17:24;;;;;;;10.38;2.97;;;;;;;10.46;100.00;98770.38;5072145;28;20115;-76
2023/06/03 02:19:50;;;;;;;10.95;2.85;;;;;;;10.42;100.00;98749.34;5073249;28;20025;-76
2023/06/03 02:22:17;;;;;;;7.50;2.95;;;;;;;10.42;100.00;98760.19;5073901;28;20024;-77
2023/06/03 02:24:43;;;;;;;9.07;3.13;;;;;;;10.25;100.00;98748.88;5094976;28;20034;-76
2023/06/03 02:27:09;;;;;;;8.75;3.20;;;;;;;10.28;100.00;98762.00;5086817;28;20020;-75
2023/06/03 02:29:34;;;;;;;8.80;2.90;;;;;;;10.44;100.00;98747.28;5092164;28;20020;-75
2023/06/03 02:32:01;;;;;;;10.50;3.25;;;;;;;10.39;100.00;98768.69;5081850;28;20024;-75
2023/06/03 02:34:27;;;;;;;8.40;3.03;;;;;;;10.40;100.00;98755.00;5089832;28;20098;-75
2023/06/03 02:36:52;;;;;;;8.02;2.92;;;;;;;10.26;100.00;98764.88;5089181;28;20051;-75
2023/06/03 02:39:18;;;;;;;9.38;3.22;;;;;;;10.20;100.00;98767.56;5094338;28;20067;-77
2023/06/03 02:41:44;;;;;;;7.32;2.75;;;;;;;10.15;100.00;98760.06;5093258;28;20024;-77
2023/06/03 02:44:10;;;;;;;8.30;2.92;;;;;;;10.10;100.00;98773.34;5094371;28;20027;-76
2023/06/03 02:46:36;;;;;;;7.80;3.08;;;;;;;10.17;100.00;98762.56;5076132;28;20032;-76
2023/06/03 02:49:06;;;;;;;12.25;3.10;;;;;;;10.15;100.00;98767.34;5082631;28;20103;-75
2023/06/03 02:51:31;;;;;;;7.70;2.78;;;;;;;10.28;100.00;98770.94;5094492;28;20024;-77
2023/06/03 02:53:57;;;;;;;11.73;3.42;;;;;;;10.14;100.00;98779.16;5085675;28;20028;-76
2023/06/03 02:56:22;;;;;;;8.10;3.47;;;;;;;10.20;100.00;98773.81;5090007;28;20019;-77
2023/06/03 02:58:51;;;;;;;11.52;2.90;;;;;;;10.07;100.00;98761.06;5086717;28;20103;-76
2023/06/03 03:01:18;;;;;;;11.43;3.50;;;;;;;10.03;100.00;98773.31;5085134;28;20024;-76
2023/06/03 03:03:44;;;;;;;9.68;3.10;;;;;;;9.92;100.00;98768.47;5081756;28;20043;-77
2023/06/03 03:06:11;;;;;;;7.40;3.28;;;;;;;9.95;100.00;98770.75;5091193;28;20488;-76
2023/06/03 03:08:37;;;;;;;9.70;2.97;;;;;;;9.90;100.00;98783.22;5080953;28;20031;-77
2023/06/03 03:11:04;;;;;;;9.13;2.80;;;;;;;9.88;100.00;98775.31;5092714;28;20480;-76
2023/06/03 03:13:30;;;;;;;11.88;3.67;;;;;;;9.86;100.00;98771.97;5093990;28;20078;-76
2023/06/03 03:15:55;;;;;;;8.25;3.42;;;;;;;9.79;100.00;98788.13;5108289;28;20020;-76
2023/06/03 03:18:22;;;;;;;9.27;3.10;;;;;;;9.70;100.00;98777.72;5084698;28;20035;-76
2023/06/03 03:20:47;;;;;;;8.15;3.30;;;;;;;9.56;100.00;98777.63;5080631;28;20478;-75
2023/06/03 03:23:13;;;;;;;12.20;3.97;;;;;;;9.64;100.00;98787.41;5081291;28;20111;-76
2023/06/03 03:25:40;;;;;;;13.23;3.55;;;;;;;9.61;100.00;98785.09;5083464;28;20107;-76
2023/06/03 03:28:06;;;;;;;7.13;3.25;;;;;;;9.59;100.00;98784.50;5087506;28;20070;-76
2023/06/03 03:30:32;;;;;;;11.20;3.72;;;;;;;9.57;100.00;98790.09;5079383;28;20013;-77
2023/06/03 03:32:59;;;;;;;17.58;3.35;;;;;;;9.55;100.00;98783.22;5086263;28;20066;-76
2023/06/03 03:35:25;;;;;;;8.50;3.17;;;;;;;9.66;100.00;98790.75;5078714;28;20023;-76
2023/06/03 03:38:01;;;;;;;10.93;3.22;;;;;;;9.61;100.00;98785.09;5086329;28;20539;-75
2023/06/03 03:40:26;;;;;;;11.07;3.25;;;;;;;9.64;100.00;98796.38;5090016;28;20054;-76
2023/06/03 03:42:53;;;;;;;11.23;3.20;;;;;;;9.66;100.00;98802.38;5083284;28;20024;-76
2023/06/03 03:45:22;;;;;;;8.80;3.28;;;;;;;9.86;100.00;98805.22;5086867;28;20296;-77
2023/06/03 03:47:49;;;;;;;14.80;2.95;;;;;;;9.82;100.00;98793.16;5087284;28;20100;-76
2023/06/03 03:50:36;;;;;;;7.18;3.10;;;;;;;10.03;100.00;98804.91;5078714;28;20021;-76
2023/06/03 03:53:04;;;;;;;6.18;2.97;;;;;;;10.01;100.00;98802.41;5091053;28;20096;-76
2023/06/03 03:55:29;;;;;;;8.40;3.97;;;;;;;10.01;100.00;98807.00;5085975;28;20019;-76
2023/06/03 03:57:55;;;;;;;11.13;3.45;;;;;;;9.99;100.00;98809.88;5089887;28;20035;-76
2023/06/03 04:00:21;;;;;;;6.65;3.10;;;;;;;9.98;100.00;98808.22;5089386;28;20389;-77
2023/06/03 04:02:49;;;;;;;9.85;2.78;;;;;;;9.89;100.00;98798.59;5087851;28;20028;-76
2023/06/03 04:05:16;;;;;;;6.57;3.50;;;;;;;9.83;100.00;98791.28;5081150;28;20024;-74
2023/06/03 04:07:44;;;;;;;12.70;3.40;;;;;;;9.93;100.00;98802.59;5086361;28;20020;-76
2023/06/03 04:10:09;;;;;;;7.35;3.00;;;;;;;10.00;100.00;98799.91;5086031;28;20065;-74
2023/06/03 04:12:38;;;;;;;11.52;3.95;;;;;;;10.01;100.00;98802.41;5089773;28;20025;-75
2023/06/03 04:15:04;;;;;;;8.07;3.13;;;;;;;10.08;100.00;98792.44;5087437;28;20628;-76
2023/06/03 04:17:30;;;;;;;7.43;3.10;;;;;;;10.14;100.00;98793.53;5081933;28;20032;-75
2023/06/03 04:19:56;;;;;;;10.68;3.22;;;;;;;10.36;100.00;98817.78;5074016;28;20052;-74
2023/06/03 04:22:23;;;;;;;9.40;3.28;;;;;;;10.47;100.00;98819.91;5092789;28;20069;-74
2023/06/03 04:24:57;;;;;;;11.00;3.90;;;;;;;10.51;100.00;98813.91;5080985;28;20043;-79
2023/06/03 04:27:23;;;;;;;9.82;3.58;;;;;;;10.61;100.00;98812.66;5085588;28;20096;-78
2023/06/03 04:29:49;;;;;;;14.20;3.28;;;;;;;10.69;100.00;98816.03;5098852;28;20110;-78
2023/06/03 04:32:15;;;;;;;10.65;3.45;;;;;;;10.76;100.00;98802.50;5081354;28;20437;-79
2023/06/03 04:34:54;;;;;;;12.90;3.50;;;;;;;10.88;100.00;98811.72;5092222;28;20478;-79
2023/06/03 04:37:21;;;;;;;14.70;3.67;;;;;;;10.95;100.00;98803.59;5103998;28;20016;-78
2023/06/03 04:39:46;;;;;;;12.73;3.88;;;;;;;11.09;100.00;98802.56;5096163;28;20526;-78
2023/06/03 04:42:12;;;;;;;11.15;3.35;;;;;;;11.13;100.00;98802.97;5084598;28;20065;-78
2023/06/03 04:44:39;;;;;;;14.57;4.05;;;;;;;11.20;100.00;98798.41;5084443;28;20119;-80
2023/06/03 04:47:10;;;;;;;9.35;3.20;;;;;;;11.33;100.00;98805.72;5080197;28;20020;-78
2023/06/03 04:49:39;;;;;;;12.52;3.60;;;;;;;11.37;100.00;98791.56;5084609;28;20020;-79
2023/06/03 04:52:09;;;;;;;12.45;3.20;;;;;;;11.57;100.00;98806.97;5090847;28;20024;-80
2023/06/03 04:54:40;;;;;;;7.70;3.20;;;;;;;11.78;100.00;98808.59;5083345;28;20558;-79
2023/06/03 04:57:05;;;;;;;9.38;3.45;;;;;;;11.84;100.00;98795.03;5080774;28;20089;-76
2023/06/03 04:59:43;;;;;;;7.55;2.90;;;;;;;12.12;100.00;98809.38;5090694;28;20443;-80
2023/06/03 05:02:34;;;;;;;10.90;3.70;;;;;;;12.24;100.00;98797.66;5104981;28;20119;-80
2023/06/03 05:05:03;;;;;;;12.95;3.50;;;;;;;12.37;100.00;98801.38;5091301;28;20090;-76
2023/06/03 05:07:29;;;;;;;11.63;3.38;;;;;;;12.45;100.00;98796.53;5091104;28;20116;-77
2023/06/03 05:09:55;;;;;;;9.00;3.63;;;;;;;12.62;100.00;98793.31;5072600;28;20366;-73
2023/06/03 05:12:20;;;;;;;9.80;3.22;;;;;;;12.82;100.00;98804.91;5083713;28;20094;-73
2023/06/03 05:14:46;;;;;;;10.77;3.10;;;;;;;12.90;100.00;98791.06;5084660;28;20024;-73
2023/06/03 05:17:12;;;;;;;11.93;3.67;;;;;;;13.00;100.00;98795.19;5091080;28;20024;-74
2023/06/03 05:19:37;;;;;;;9.38;3.50;;;;;;;13.04;100.00;98796.41;5084582;28;20501;-73
2023/06/03 05:22:03;;;;;;;14.07;3.17;;;;;;;13.06;100.00;98786.16;5085023;28;20028;-80
2023/06/03 05:24:29;;;;;;;9.30;3.13;;;;;;;13.11;100.00;98784.44;5078649;28;20028;-78
2023/06/03 05:26:54;;;;;;;7.60;2.83;;;;;;;13.52;100.00;98801.31;5075558;28;20024;-78
2023/06/03 05:29:19;;;;;;;9.50;3.45;;;;;;;13.72;100.00;98793.78;5091651;28;20076;-78
2023/06/03 05:31:45;;;;;;;11.23;3.38;;;;;;;14.02;100.00;98776.75;5074737;28;20020;-72
2023/06/03 05:34:10;;;;;;;11.63;2.78;;;;;;;14.34;100.00;98779.31;5076862;28;20027;-74
2023/06/03 05:36:36;;;;;;;9.80;2.65;;;;;;;14.63;100.00;98781.25;5093553;28;20039;-77
2023/06/03 05:39:01;;;;;;;9.90;3.05;;;;;;;14.87;100.00;98774.00;5093682;28;20028;-78
2023/06/03 05:41:26;;;;;;;6.90;2.65;;;;;;;15.13;100.00;98778.22;5089690;28;20027;-79
2023/06/03 05:43:52;;;;;;;5.60;2.75;;;;;;;15.37;100.00;98778.28;5076569;28;20021;-74
2023/06/03 05:46:17;;;;;;;6.70;2.78;;;;;;;15.64;100.00;98781.38;5074781;28;20035;-73
2023/06/03 05:48:43;;;;;;;7.53;2.90;;;;;;;15.86;100.00;98786.28;5094199;28;20028;-73
2023/06/03 05:51:08;;;;;;;10.27;2.67;;;;;;;15.95;100.00;98782.09;5087808;28;20024;-73
2023/06/03 05:53:34;;;;;;;6.85;2.70;;;;;;;16.28;100.00;98776.00;5084323;28;20021;-73
2023/06/03 05:55:59;;;;;;;5.82;2.65;;;;;;;16.49;100.00;98787.34;5083364;28;20028;-73
2023/06/03 05:58:24;;;;;;;8.32;2.70;;;;;;;16.40;100.00;98782.28;5081527;28;20040;-73
2023/06/03 06:00:50;;;;;;;8.40;3.00;;;;;;;16.77;100.00;98776.47;5084074;28;20031;-73
2023/06/03 06:03:16;;;;;;;13.48;2.72;;;;;;;17.05;100.00;98777.50;5083800;28;20032;-73
2023/06/03 06:05:41;;;;;;;6.80;2.58;;;;;;;17.34;100.00;98774.72;5082900;28;20015;-73
2023/06/03 06:08:07;;;;;;;8.10;2.67;;;;;;;17.56;100.00;98772.09;5090005;28;20055;-73
2023/06/03 06:10:32;;;;;;;8.63;2.50;;;;;;;17.77;100.00;98768.56;5085520;28;20701;-73
2023/06/03 06:12:57;;;;;;;6.72;2.88;;;;;;;17.57;100.00;98785.50;5074041;28;20681;-74
2023/06/03 06:15:22;;;;;;;8.05;2.63;;;;;;;17.60;100.00;98782.25;5083420;28;20028;-73
2023/06/03 06:17:48;;;;;;;6.68;2.47;;;;;;;18.16;100.00;98783.13;5081634;28;20021;-74
2023/06/03 06:20:13;;;;;;;7.32;2.95;;;;;;;18.34;100.00;98789.38;5089489;28;20047;-73
2023/06/03 06:22:39;;;;;;;13.07;3.00;;;;;;;18.56;100.00;98786.63;5092458;28;20444;-73
2023/06/03 06:25:06;;;;;;;6.00;2.55;;;;;;;18.73;100.00;98772.84;5093890;28;20024;-74
2023/06/03 06:27:31;;;;;;;8.30;2.70;;;;;;;18.91;100.00;98778.00;5087231;28;20049;-74
2023/06/03 06:29:57;;;;;;;11.38;3.20;;;;;;;19.01;100.00;98786.34;5103651;28;20063;-73
2023/06/03 06:32:25;;;;;;;6.97;2.45;;;;;;;18.99;100.00;98779.44;5104055;22;20041;-70
2023/06/03 06:34:52;;;;;;;8.38;2.55;;;;;;;19.43;100.00;98785.63;5038667;28;20036;-70
2023/06/03 06:37:21;;;;;;;7.40;2.80;;;;;;;19.93;100.00;98761.56;5042381;28;20021;-71
2023/06/03 06:39:52;;;;;;;10.15;2.22;;;;;;;20.55;100.00;98773.72;5032592;28;20057;-70
2023/06/03 06:42:33;;;;;;;9.20;2.50;;;;;;;20.75;100.00;98779.31;5039367;28;20156;-70
2023/06/03 06:45:10;;;;;;;5.50;2.45;;;;;;;21.28;95.96;98781.06;5030132;28;20131;-70
2023/06/03 06:47:36;;;;;;;7.38;2.42;;;;;;;23.26;84.51;98773.31;5023749;28;20026;-69
2023/06/03 06:50:04;;;;;;;8.30;2.40;;;;;;;25.98;67.75;98773.53;5033545;28;20020;-69
2023/06/03 06:52:30;;;;;;;7.60;2.25;;;;;;;27.56;58.47;98776.81;5050484;28;20025;-71
2023/06/03 06:54:56;;;;;;;8.40;2.33;;;;;;;28.99;53.49;98757.00;5048656;28;20029;-70
2023/06/03 06:57:23;;;;;;;6.40;2.33;;;;;;;30.28;49.80;98759.97;5030675;28;20060;-70
2023/06/03 06:59:52;;;;;;;7.28;2.67;;;;;;;30.73;46.29;98758.59;5030474;28;20036;-70
2023/06/03 07:02:19;;;;;;;5.70;2.67;;;;;;;30.73;43.96;98765.00;5032442;28;20045;-70
2023/06/03 07:04:45;;;;;;;10.20;2.58;;;;;;;31.17;44.03;98751.56;5032429;28;20079;-69
2023/06/03 07:07:12;;;;;;;5.88;2.30;;;;;;;30.54;44.31;98761.81;5032281;28;20029;-71
2023/06/03 07:09:37;;;;;;;8.05;2.10;;;;;;;31.82;44.06;98765.94;5029031;28;20030;-70
2023/06/03 07:12:03;;;;;;;8.95;2.42;;;;;;;32.94;40.66;98760.09;5023310;28;20534;-71
2023/06/03 07:14:30;;;;;;;6.30;2.20;;;;;;;32.86;38.52;98746.22;5026738;28;20029;-70
2023/06/03 07:16:55;;;;;;;9.13;2.30;;;;;;;31.55;39.27;98761.78;5021680;28;20439;-70
2023/06/03 07:19:21;;;;;;;6.50;2.78;;;;;;;30.40;41.45;98752.88;5028432;28;20123;-70
2023/06/03 07:21:46;;;;;;;7.93;3.03;;;;;;;31.13;40.63;98770.19;5032992;28;20025;-70
2023/06/03 07:24:14;;;;;;;9.35;2.80;;;;;;;30.73;40.82;98753.00;5032408;28;20079;-69
2023/06/03 07:26:39;;;;;;;10.98;3.25;;;;;;;29.75;41.59;98764.06;5029106;28;20566;-69
2023/06/03 07:29:05;;;;;;;7.40;2.35;;;;;;;31.19;39.87;98751.22;5023309;28;20117;-70
2023/06/03 07:31:31;;;;;;;6.82;2.67;;;;;;;29.84;40.81;98755.66;5030772;28;20052;-69
2023/06/03 07:33:57;;;;;;;5.90;2.28;;;;;;;30.08;40.76;98749.53;5029856;28;20025;-70
2023/06/03 07:36:24;;;;;;;9.05;2.40;;;;;;;30.64;41.40;98755.84;5032030;28;20056;-69
2023/06/03 07:38:56;;;;;;;8.07;2.60;;;;;;;32.80;38.40;98740.03;5030717;28;20022;-69
2023/06/03 07:41:43;;;;;;;7.38;2.47;;;;;;;32.52;37.82;98757.59;5031492;28;20029;-69
2023/06/03 07:44:13;;;;;;;10.30;2.72;;;;;;;32.21;37.94;98760.09;5028037;28;20491;-69
2023/06/03 07:46:42;;;;;;;5.63;2.53;;;;;;;30.62;39.64;98766.53;5025917;28;20025;-70
2023/06/03 07:49:09;;;;;;;9.52;2.50;;;;;;;30.19;41.14;98764.75;5031386;28;20029;-70
2023/06/03 07:51:35;;;;;;;8.75;2.65;;;;;;;30.53;40.75;98766.59;5024116;28;20116;-70
2023/06/03 07:54:03;;;;;;;6.88;2.80;;;;;;;31.32;39.05;98757.69;5031764;28;20056;-70
2023/06/03 07:56:28;;;;;;;5.93;2.78;;;;;;;32.42;38.72;98769.22;5030667;28;20041;-70
2023/06/03 07:58:54;;;;;;;8.25;2.88;;;;;;;32.06;38.36;98762.41;5025290;28;20098;-70
2023/06/03 08:01:24;;;;;;;7.40;2.55;;;;;;;33.12;37.25;98754.25;5030503;28;20025;-69
2023/06/03 08:03:50;;;;;;;7.55;2.63;;;;;;;32.59;37.67;98747.75;5033346;28;20021;-69
2023/06/03 08:06:16;;;;;;;7.53;2.65;;;;;;;33.31;37.48;98762.84;5026936;28;20021;-69
2023/06/03 08:08:42;;;;;;;6.43;2.65;;;;;;;34.03;35.82;98768.47;5032135;28;20029;-68
2023/06/03 08:11:08;;;;;;;9.82;3.35;;;;;;;32.55;37.41;98758.06;5031208;28;20052;-68
2023/06/03 08:13:33;;;;;;;5.55;2.72;;;;;;;31.30;38.23;98780.38;5030127;28;20425;-69
2023/06/03 08:15:59;;;;;;;5.35;2.58;;;;;;;32.34;37.93;98780.53;5028575;28;20025;-70
2023/06/03 08:18:50;;;;;;;5.22;2.53;;;;;;;34.04;37.00;98761.69;5023820;28;20029;-75
2023/06/03 08:21:16;;;;;;;4.95;2.55;;;;;;;35.58;34.60;98774.97;5027953;28;20025;-75
2023/06/03 08:23:42;;;;;;;5.55;2.80;;;;;;;34.45;35.29;98758.72;5020069;28;20080;-75
2023/06/03 08:26:10;;;;;;;5.50;2.60;;;;;;;33.30;35.54;98755.59;5026360;28;20045;-75
2023/06/03 08:28:38;;;;;;;6.72;2.67;;;;;;;31.51;38.84;98771.19;5026302;28;20095;-74
2023/06/03 08:31:04;;;;;;;5.90;2.67;;;;;;;31.85;38.25;98772.81;5030972;28;20021;-75
2023/06/03 08:33:29;;;;;;;9.57;3.83;;;;;;;32.93;37.97;98758.47;5026260;28;20036;-74
2023/06/03 08:35:54;;;;;;;5.88;3.17;;;;;;;33.34;36.49;98767.72;5032156;28;20025;-75
2023/06/03 08:38:19;;;;;;;12.38;2.70;;;;;;;32.42;37.94;98755.22;5027387;28;20063;-75
2023/06/03 08:40:50;;;;;;;7.35;2.70;;;;;;;34.38;36.31;98756.56;5007062;28;20022;-76
2023/06/03 08:43:16;;;;;;;8.20;2.78;;;;;;;34.34;35.26;98743.59;5039996;28;20151;-74
2023/06/03 08:46:16;;;;;;;5.05;2.70;;;;;;;33.99;36.50;98769.56;5022546;28;20103;-77
2023/06/03 08:49:04;;;;;;;7.97;2.20;;;;;;;35.88;34.27;98761.88;5024204;28;20044;-76
2023/06/03 08:51:36;;;;;;;7.95;3.05;;;;;;;37.33;32.86;98761.00;5025293;28;20049;-74
2023/06/03 08:54:11;;;;;;;4.93;2.47;;;;;;;37.23;33.67;98762.53;5017896;28;20037;-74
2023/06/03 08:56:41;;;;;;;9.80;2.85;;;;;;;38.52;31.45;98768.78;5022578;28;20029;-73
2023/06/03 08:59:10;;;;;;;5.65;2.60;;;;;;;37.67;32.84;98753.38;5026350;28;20025;-74
2023/06/03 09:01:37;;;;;;;10.48;2.58;;;;;;;38.18;32.34;98749.09;5020671;28;20071;-74
2023/06/03 09:04:05;;;;;;;5.20;2.45;;;;;;;36.99;32.31;98746.81;5041133;28;20021;-74
2023/06/03 09:06:31;;;;;;;5.38;2.28;;;;;;;36.25;33.53;98763.38;5031813;28;20378;-77
2023/06/03 09:08:57;;;;;;;5.03;2.28;;;;;;;37.82;33.04;98757.19;5039956;28;20041;-74
2023/06/03 09:11:23;;;;;;;6.20;2.75;;;;;;;36.79;32.87;98759.44;5026855;28;20095;-74
2023/06/03 09:13:51;;;;;;;5.93;2.38;;;;;;;37.01;32.78;98749.28;5041304;28;20104;-74
2023/06/03 09:16:17;;;;;;;6.30;2.47;;;;;;;36.16;33.63;98756.00;5033450;28;20451;-74
2023/06/03 09:18:43;;;;;;;6.38;2.70;;;;;;;36.74;33.37;98729.56;5030775;28;20045;-74
2023/06/03 09:21:09;;;;;;;6.68;2.58;;;;;;;37.87;32.18;98750.38;5043422;28;20044;-73
2023/06/03 09:23:37;;;;;;;6.60;2.70;;;;;;;38.92;31.84;98750.09;5026672;28;20037;-73
2023/06/03 09:26:03;;;;;;;7.72;2.70;;;;;;;38.52;31.25;98737.69;5028636;28;20113;-71
2023/06/03 09:28:29;;;;;;;8.82;2.42;;;;;;;40.42;30.92;98741.28;5028537;28;20026;-74
2023/06/03 09:30:55;;;;;;;7.38;2.75;;;;;;;40.78;29.67;98742.06;5022278;28;20101;-72
2023/06/03 09:33:21;;;;;;;10.77;3.10;;;;;;;40.12;30.31;98753.00;5020832;28;20145;-72
2023/06/03 09:36:12;;;;;;;6.82;2.47;;;;;;;40.34;30.01;98751.00;5023303;28;20511;-72
2023/06/03 09:38:51;;;;;;;5.72;2.35;;;;;;;40.52;30.11;98746.13;5027630;28;20029;-72
2023/06/03 09:41:18;;;;;;;6.18;2.28;;;;;;;42.12;28.37;98746.00;5023880;28;21894;-74
2023/06/03 09:43:54;;;;;;;8.30;2.72;;;;;;;40.95;29.23;98740.41;5020826;28;20040;-74
2023/06/03 09:46:19;;;;;;;7.28;2.75;;;;;;;39.20;30.74;98740.97;5027654;28;20037;-73
2023/06/03 09:48:45;;;;;;;7.65;2.47;;;;;;;39.62;30.35;98731.81;5023847;28;20128;-74
2023/06/03 09:51:10;;;;;;;5.20;2.30;;;;;;;39.35;30.88;98736.19;5029149;28;20379;-75
2023/06/03 09:53:37;;;;;;;5.50;2.58;;;;;;;40.26;29.60;98733.97;5029630;28;20343;-75
2023/06/03 09:56:23;;;;;;;6.13;2.60;;;;;;;39.66;29.85;98740.31;5026481;28;20018;-74
2023/06/03 09:58:51;;;;;;;5.68;2.50;;;;;;;37.13;31.97;98723.69;5014972;28;20026;-74
2023/06/03 10:01:29;;;;;;;4.78;2.20;;;;;;;39.70;30.93;98723.34;5029804;28;20021;-73
2023/06/03 10:03:58;;;;;;;8.25;2.53;;;;;;;38.63;31.27;98726.44;5010376;28;20029;-74
2023/06/03 10:06:24;;;;;;;5.00;2.42;;;;;;;37.92;31.13;98730.25;5032042;28;20061;-75
2023/06/03 10:08:49;;;;;;;4.70;1.95;;;;;;;40.13;30.07;98721.41;5030236;28;20063;-73
2023/06/03 10:11:15;;;;;;;4.45;2.55;;;;;;;40.08;30.42;98733.94;5033612;28;20538;-73
2023/06/03 10:13:40;;;;;;;6.47;2.47;;;;;;;38.14;31.99;98719.97;5033680;28;20033;-74
2023/06/03 10:16:12;;;;;;;6.53;2.40;;;;;;;37.66;31.33;98726.34;5031201;28;20279;-72
2023/06/03 10:18:40;;;;;;;10.05;2.10;;;;;;;40.26;30.38;98724.69;5029553;28;20281;-72
2023/06/03 10:21:10;;;;;;;5.13;2.40;;;;;;;40.82;29.36;98725.03;5032497;28;20056;-72
2023/06/03 10:23:40;;;;;;;5.35;2.53;;;;;;;36.59;32.56;98731.34;5028338;28;20037;-74
2023/06/03 10:26:07;;;;;;;7.50;2.67;;;;;;;35.68;34.19;98723.69;5019612;28;20104;-70
2023/06/03 10:28:33;;;;;;;9.20;2.92;;;;;;;38.08;32.06;98719.53;5032019;28;20025;-71
2023/06/03 10:31:00;;;;;;;10.57;3.15;;;;;;;38.91;30.96;98715.34;5021718;28;20622;-70
2023/06/03 10:33:27;;;;;;;6.05;2.95;;;;;;;38.80;31.30;98712.44;5031200;28;20037;-71
2023/06/03 10:35:56;;;;;;;7.20;2.63;;;;;;;40.22;30.52;98716.19;5033525;28;20096;-71
2023/06/03 10:38:21;;;;;;;4.32;2.47;;;;;;;40.97;29.40;98715.25;5031824;28;20029;-71
2023/06/03 10:40:48;;;;;;;9.27;2.90;;;;;;;39.67;29.25;98713.63;5029038;28;20068;-70
2023/06/03 10:43:13;;;;;;;4.65;2.90;;;;;;;35.84;32.65;98701.88;5029223;28;20060;-71
2023/06/03 10:45:39;;;;;;;6.00;2.70;;;;;;;35.98;33.28;98709.78;5028958;28;20160;-71
2023/06/03 10:48:12;;;;;;;7.45;3.10;;;;;;;37.04;32.62;98698.56;5032564;28;20025;-71
2023/06/03 10:50:47;;;;;;;5.72;2.58;;;;;;;35.77;33.93;98704.59;5027730;28;20120;-71
2023/06/03 10:53:23;;;;;;;5.50;2.88;;;;;;;35.59;34.09;98695.00;5031061;28;20030;-71
2023/06/03 10:56:05;;;;;;;5.90;2.90;;;;;;;32.69;36.96;98702.47;5048031;28;20029;-71
2023/06/03 10:58:31;;;;;;;4.72;3.03;;;;;;;31.74;38.67;98701.69;5029186;28;20052;-72
2023/06/03 11:01:04;;;;;;;6.00;3.10;;;;;;;34.69;35.99;98690.28;5027049;28;20068;-71
2023/06/03 11:03:34;;;;;;;9.52;3.60;;;;;;;33.89;35.92;98697.09;5032009;28;20029;-72
2023/06/03 11:06:18;;;;;;;8.10;3.50;;;;;;;31.40;38.64;98712.09;5024592;28;20598;-72
2023/06/03 11:09:08;;;;;;;5.95;3.63;;;;;;;30.53;39.91;98721.09;5030212;28;20029;-72
2023/06/03 11:11:40;;;;;;;10.52;3.30;;;;;;;29.75;41.09;98707.47;5027191;28;20022;-71
2023/06/03 11:14:06;;;;;;;10.00;3.47;;;;;;;31.81;40.14;98704.75;5030378;28;20032;-71
2023/06/03 11:16:57;;;;;;;5.53;3.05;;;;;;;35.10;36.12;98707.66;5029144;28;20021;-72
2023/06/03 11:19:44;;;;;;;8.55;3.25;;;;;;;33.11;36.85;98704.94;5031140;28;20037;-72
2023/06/03 11:22:11;;;;;;;8.10;3.28;;;;;;;30.65;39.29;98712.78;5029175;28;20390;-73
2023/06/03 11:24:43;;;;;;;8.57;3.28;;;;;;;29.28;41.62;98699.84;5021876;28;20026;-72
2023/06/03 11:27:12;;;;;;;6.28;3.88;;;;;;;28.62;43.38;98711.91;5023650;28;20028;-71
2023/06/03 11:29:47;;;;;;;9.35;3.83;;;;;;;28.94;43.54;98709.81;5019557;28;20018;-71